首页
METAR-TAF:

METAR-TAF

机场 :

伦敦绍森德机场

伦敦Southend, 英格兰

纬度: 51-34N, 经度: 000-42E, 海拔: 15米

当前天气观测

该预报发布于1小时和2分钟前的00:20 UTC
风速5节,风向西转西南
温度 12°C
湿度 82%
气压 1017 hPa
能见度10公里或以上
1500米以下无云,无积雨云

METAR: EGMC 180020Z 24005KT CAVOK 12/09 Q1017

时间: 02:22 (01:22 UTC)

预报

该预报发布于2小时和17分钟前的23:05 UTC
预报有效从18日的 00点(UTC)到 18日的 09点(UTC)
风速9节,风向西南
能见度10公里或以上
少量云层高于3000英尺

TAF: EGMC 172305Z 1800/1809 22009KT 9999 FEW030

超过4000个机场的气象观测和天气预报(METAR&TAF报告)。

可查询的气象台以黄色和红色小点在地图上表示。

将鼠标移到小点上方,可查看气象台名称。

然后点击查看天气观测和预报。

如需切换地图:点击带黑十字的绿色按钮放大地图;点击带横线的绿色按钮缩小地图;或者点击绿色箭头查看邻近地区的地图。


METAR-TAF: